createdAt,value
2023-05-01T00:02:30.838Z,9.17
2023-05-01T00:05:01.916Z,8.77
2023-05-01T00:07:33.343Z,10.47
2023-05-01T00:10:04.086Z,9.10
2023-05-01T00:12:35.073Z,7.67
2023-05-01T00:15:09.228Z,8.27
2023-05-01T00:17:39.969Z,10.60
2023-05-01T00:20:12.237Z,8.60
2023-05-01T00:22:43.345Z,9.23
2023-05-01T00:25:17.317Z,8.10
2023-05-01T00:27:48.915Z,9.18
2023-05-01T00:30:19.755Z,9.57
2023-05-01T00:32:51.417Z,6.90
2023-05-01T00:35:23.305Z,8.15
2023-05-01T00:37:55.187Z,9.60
2023-05-01T00:40:26.176Z,11.87
2023-05-01T00:42:57.455Z,10.23
2023-05-01T00:45:27.975Z,7.77
2023-05-01T00:47:58.741Z,8.07
2023-05-01T00:50:29.771Z,9.00
2023-05-01T00:53:01.400Z,8.20
2023-05-01T00:55:33.795Z,10.33
2023-05-01T00:58:05.678Z,8.87
2023-05-01T01:00:36.485Z,9.40
2023-05-01T01:03:08.441Z,8.83
2023-05-01T01:05:47.498Z,8.83
2023-05-01T01:08:33.085Z,11.47
2023-05-01T01:11:15.515Z,7.77
2023-05-01T01:14:13.949Z,11.93
2023-05-01T01:16:50.263Z,8.87
2023-05-01T01:19:54.980Z,8.93
2023-05-01T01:22:28.592Z,8.33
2023-05-01T01:25:14.091Z,7.57
2023-05-01T01:27:59.738Z,8.57
2023-05-01T01:30:42.435Z,10.10
2023-05-01T01:33:48.618Z,8.03
2023-05-01T01:36:22.502Z,7.60
2023-05-01T01:39:01.697Z,8.03
2023-05-01T01:41:36.251Z,9.87
2023-05-01T01:44:13.408Z,9.10
2023-05-01T01:46:44.650Z,8.83
2023-05-01T01:49:20.585Z,8.30
2023-05-01T01:51:52.630Z,8.27
2023-05-01T01:54:28.881Z,9.73
2023-05-01T01:57:03.412Z,9.67
2023-05-01T01:59:36.189Z,9.53
2023-05-01T02:02:08.690Z,12.23
2023-05-01T02:04:42.262Z,9.93
2023-05-01T02:07:14.821Z,8.37
2023-05-01T02:09:47.187Z,8.57
2023-05-01T02:12:20.696Z,10.27
2023-05-01T02:14:53.833Z,6.95
2023-05-01T02:17:27.576Z,8.70
2023-05-01T02:19:59.802Z,10.73
2023-05-01T02:22:31.925Z,8.40
2023-05-01T02:25:04.897Z,8.47
2023-05-01T02:27:38.791Z,8.80
2023-05-01T02:30:10.551Z,9.23
2023-05-01T02:32:41.447Z,11.80
2023-05-01T02:35:12.138Z,7.97
2023-05-01T02:37:42.850Z,7.53
2023-05-01T02:40:17.091Z,7.58
2023-05-01T02:42:50.464Z,7.97
2023-05-01T02:45:23.824Z,9.40
2023-05-01T02:47:57.130Z,9.93
2023-05-01T02:50:28.737Z,10.17
2023-05-01T02:53:00.835Z,9.20
2023-05-01T02:55:31.559Z,8.47
2023-05-01T02:58:02.916Z,8.97
2023-05-01T03:00:35.471Z,8.60
2023-05-01T03:03:06.044Z,8.83
2023-05-01T03:05:37.184Z,8.40
2023-05-01T03:08:09.634Z,8.87
2023-05-01T03:10:43.436Z,10.80
2023-05-01T03:13:14.468Z,7.50
2023-05-01T03:15:48.888Z,9.47
2023-05-01T03:18:19.760Z,8.63
2023-05-01T03:20:54.883Z,6.93
2023-05-01T03:23:26.014Z,9.13
2023-05-01T03:25:57.806Z,8.97
2023-05-01T03:28:29.817Z,9.40
2023-05-01T03:31:00.393Z,9.87
2023-05-01T03:33:32.650Z,10.77
2023-05-01T03:36:05.487Z,8.40
2023-05-01T03:38:35.948Z,9.13
2023-05-01T03:41:07.691Z,7.97
2023-05-01T03:43:39.297Z,9.48
2023-05-01T03:46:09.916Z,8.27
2023-05-01T03:48:41.101Z,7.73
2023-05-01T03:51:11.628Z,7.50
2023-05-01T03:53:42.556Z,8.03
2023-05-01T03:56:13.152Z,7.67
2023-05-01T03:58:43.789Z,8.53
2023-05-01T04:01:15.879Z,8.10
2023-05-01T04:03:47.628Z,9.03
2023-05-01T04:06:18.342Z,9.10
2023-05-01T04:08:48.718Z,10.50
2023-05-01T04:11:19.349Z,8.90
2023-05-01T04:13:50.290Z,11.03
2023-05-01T04:16:20.936Z,8.80
2023-05-01T04:18:53.194Z,8.43
2023-05-01T04:21:23.876Z,8.30
2023-05-01T04:23:54.387Z,6.93
2023-05-01T04:26:24.995Z,10.13
2023-05-01T04:28:57.866Z,8.50
2023-05-01T04:31:28.384Z,11.67
2023-05-01T04:33:59.043Z,8.57
2023-05-01T04:36:29.566Z,7.30
2023-05-01T04:39:00.350Z,8.87
2023-05-01T04:41:32.751Z,9.00
2023-05-01T04:44:03.403Z,8.37
2023-05-01T04:46:35.765Z,8.50
2023-05-01T04:49:09.354Z,7.73
2023-05-01T04:51:41.443Z,8.33
2023-05-01T04:54:13.575Z,10.57
2023-05-01T04:56:44.118Z,7.27
2023-05-01T04:59:14.694Z,7.20
2023-05-01T05:01:45.497Z,8.53
2023-05-01T05:04:18.629Z,9.33
2023-05-01T05:06:50.537Z,8.63
2023-05-01T05:09:24.398Z,7.97
2023-05-01T05:11:54.985Z,7.45
2023-05-01T05:14:28.174Z,6.95
2023-05-01T05:17:01.964Z,7.60
2023-05-01T05:19:33.009Z,6.87
2023-05-01T05:22:04.248Z,7.22
2023-05-01T05:24:34.940Z,7.47
2023-05-01T05:27:07.182Z,6.65
2023-05-01T05:29:37.740Z,5.92
2023-05-01T05:32:08.475Z,7.80
2023-05-01T05:34:39.171Z,8.40
2023-05-01T05:37:09.650Z,6.42
2023-05-01T05:39:41.631Z,7.45
2023-05-01T05:42:13.072Z,7.70
2023-05-01T05:44:49.895Z,6.00
2023-05-01T05:47:20.514Z,8.78
2023-05-01T05:49:51.160Z,7.42
2023-05-01T05:52:23.193Z,7.97
2023-05-01T05:54:53.810Z,6.05
2023-05-01T05:57:24.735Z,6.12
2023-05-01T05:59:55.928Z,7.25
2023-05-01T06:02:27.754Z,8.15
2023-05-01T06:05:03.480Z,6.87
2023-05-01T06:07:34.259Z,5.40
2023-05-01T06:10:06.138Z,8.68
2023-05-01T06:12:41.349Z,7.67
2023-05-01T06:15:13.345Z,7.42
2023-05-01T06:17:45.322Z,8.45
2023-05-01T06:20:16.220Z,8.30
2023-05-01T06:22:47.889Z,7.28
2023-05-01T06:25:19.503Z,7.08
2023-05-01T06:27:50.757Z,7.55
2023-05-01T06:30:21.978Z,7.58
2023-05-01T06:32:52.894Z,6.17
2023-05-01T06:35:23.800Z,7.90
2023-05-01T06:37:56.102Z,8.30
2023-05-01T06:40:26.839Z,7.00
2023-05-01T06:42:57.407Z,7.83
2023-05-01T06:45:28.289Z,5.92
2023-05-01T06:47:59.452Z,7.42
2023-05-01T06:50:31.456Z,6.33
2023-05-01T06:53:02.812Z,7.58
2023-05-01T06:55:36.010Z,5.63
2023-05-01T06:58:22.405Z,5.35
2023-05-01T07:00:40.801Z,7.03
2023-05-01T07:03:11.732Z,7.45
2023-05-01T07:05:42.356Z,7.67
2023-05-01T07:08:12.938Z,5.67
2023-05-01T07:10:45.974Z,6.22
2023-05-01T07:13:17.133Z,6.17
2023-05-01T07:15:49.242Z,5.25
2023-05-01T07:18:20.147Z,6.40
2023-05-01T07:20:51.533Z,7.28
2023-05-01T07:23:24.014Z,5.95
2023-05-01T07:25:54.624Z,6.40
2023-05-01T07:28:27.240Z,7.08
2023-05-01T07:30:57.744Z,7.58
2023-05-01T07:33:30.937Z,5.80
2023-05-01T07:36:04.683Z,6.95
2023-05-01T07:38:35.169Z,7.42
2023-05-01T07:41:06.362Z,6.08
2023-05-01T07:43:37.440Z,6.33
2023-05-01T07:46:08.221Z,5.42
2023-05-01T07:48:39.201Z,6.00
2023-05-01T07:51:10.857Z,8.90
2023-05-01T07:53:42.305Z,7.08
2023-05-01T07:56:14.779Z,4.65
2023-05-01T07:58:45.077Z,6.00
2023-05-01T08:01:15.783Z,8.40
2023-05-01T08:03:50.932Z,5.75
2023-05-01T08:06:21.255Z,5.00
2023-05-01T08:08:51.717Z,7.00
2023-05-01T08:11:22.830Z,5.95
2023-05-01T08:13:54.749Z,5.80
2023-05-01T08:16:28.064Z,7.35
2023-05-01T08:19:00.043Z,5.95
2023-05-01T08:21:31.373Z,4.62
2023-05-01T08:24:01.969Z,6.55
2023-05-01T08:26:32.587Z,6.60
2023-05-01T08:29:04.745Z,6.45
2023-05-01T08:31:36.936Z,6.97
2023-05-01T08:34:07.671Z,4.87
2023-05-01T08:36:38.883Z,5.80
2023-05-01T08:39:09.812Z,6.05
2023-05-01T08:41:41.005Z,5.47
2023-05-01T08:44:13.764Z,6.45
2023-05-01T08:47:13.961Z,5.15
2023-05-01T08:49:46.491Z,7.03
2023-05-01T08:52:17.419Z,5.55
2023-05-01T08:54:50.642Z,4.60
2023-05-01T08:57:22.793Z,7.62
2023-05-01T08:59:56.426Z,7.80
2023-05-01T09:02:28.876Z,4.40
2023-05-01T09:05:01.537Z,5.00
2023-05-01T09:07:32.620Z,5.40
2023-05-01T09:10:04.857Z,4.60
2023-05-01T09:12:38.877Z,5.10
2023-05-01T09:15:11.702Z,5.58
2023-05-01T09:17:45.053Z,4.72
2023-05-01T09:20:17.492Z,5.92
2023-05-01T09:22:48.604Z,4.58
2023-05-01T09:25:20.508Z,4.97
2023-05-01T09:27:51.500Z,4.97
2023-05-01T09:30:35.611Z,5.17
2023-05-01T09:33:12.057Z,3.77
2023-05-01T09:35:57.196Z,5.45
2023-05-01T09:38:31.704Z,4.80
2023-05-01T09:41:06.394Z,4.15
2023-05-01T09:43:38.087Z,4.87
2023-05-01T09:46:12.969Z,5.30
2023-05-01T09:48:46.687Z,4.90
2023-05-01T09:51:27.201Z,4.97
2023-05-01T09:54:02.180Z,6.58
2023-05-01T09:56:34.203Z,5.40
2023-05-01T09:59:20.120Z,5.85
2023-05-01T10:01:51.342Z,5.45
2023-05-01T10:04:24.994Z,5.03
2023-05-01T10:06:55.721Z,3.95
2023-05-01T10:09:34.703Z,4.90
2023-05-01T10:12:07.841Z,6.35
2023-05-01T10:14:41.843Z,7.45
2023-05-01T10:17:22.293Z,7.87
2023-05-01T10:19:53.263Z,4.37
2023-05-01T10:22:26.695Z,5.20
2023-05-01T10:24:59.819Z,7.47
2023-05-01T10:27:32.540Z,5.70
2023-05-01T10:30:10.715Z,6.40
2023-05-01T10:32:43.093Z,5.45
2023-05-01T10:35:16.220Z,9.58
2023-05-01T10:37:52.909Z,5.87
2023-05-01T10:40:50.122Z,5.80
2023-05-01T10:43:28.860Z,5.80
2023-05-01T10:46:20.918Z,5.08
2023-05-01T10:48:56.060Z,7.22
2023-05-01T10:51:29.982Z,6.47
2023-05-01T10:54:21.898Z,5.72
2023-05-01T10:56:53.742Z,6.65
2023-05-01T10:59:25.138Z,7.08
2023-05-01T11:01:57.308Z,4.35
2023-05-01T11:04:31.346Z,5.22
2023-05-01T11:07:09.316Z,6.58
2023-05-01T11:09:49.528Z,5.75
2023-05-01T11:12:52.536Z,6.47
2023-05-01T11:15:30.942Z,9.35
2023-05-01T11:18:03.597Z,6.12
2023-05-01T11:20:40.143Z,5.53
2023-05-01T11:23:13.690Z,5.40
2023-05-01T11:25:46.517Z,5.08
2023-05-01T11:28:20.560Z,4.95
2023-05-01T11:30:51.591Z,5.53
2023-05-01T11:33:26.319Z,7.00
2023-05-01T11:36:01.506Z,4.55
2023-05-01T11:38:32.101Z,4.95
2023-05-01T11:41:06.476Z,7.17
2023-05-01T11:43:40.042Z,6.67
2023-05-01T11:46:10.805Z,4.65
2023-05-01T11:48:44.418Z,5.08
2023-05-01T11:51:15.316Z,7.15
2023-05-01T11:54:05.370Z,4.97
2023-05-01T11:56:37.166Z,5.05
2023-05-01T11:59:16.710Z,6.87
2023-05-01T12:01:47.994Z,4.90
2023-05-01T12:04:31.918Z,5.47
2023-05-01T12:07:00.780Z,7.80
2023-05-01T12:09:32.039Z,5.47
2023-05-01T12:12:03.688Z,7.22
2023-05-01T12:14:34.320Z,5.60
2023-05-01T12:17:07.080Z,8.38
2023-05-01T12:19:49.261Z,5.28
2023-05-01T12:22:23.918Z,6.08
2023-05-01T12:24:57.169Z,5.92
2023-05-01T12:27:27.971Z,5.85
2023-05-01T12:29:58.661Z,6.47
2023-05-01T12:32:33.996Z,5.10
2023-05-01T12:35:17.717Z,7.12
2023-05-01T12:37:48.504Z,6.78
2023-05-01T12:40:19.343Z,5.67
2023-05-01T12:42:59.856Z,6.12
2023-05-01T12:45:30.640Z,7.37
2023-05-01T12:48:01.413Z,5.55
2023-05-01T12:50:35.158Z,6.53
2023-05-01T12:53:07.186Z,7.00
2023-05-01T12:55:45.800Z,7.33
2023-05-01T12:58:17.846Z,8.35
2023-05-01T13:00:56.247Z,6.70
2023-05-01T13:03:29.319Z,5.58
2023-05-01T13:06:05.754Z,5.65
2023-05-01T13:08:40.192Z,6.72
2023-05-01T13:11:16.161Z,8.35
2023-05-01T13:13:48.471Z,6.45
2023-05-01T13:16:20.199Z,6.58
2023-05-01T13:18:53.723Z,7.12
2023-05-01T13:21:26.960Z,5.65
2023-05-01T13:24:00.386Z,9.00
2023-05-01T13:26:36.219Z,6.12
2023-05-01T13:29:07.438Z,7.53
2023-05-01T13:31:41.643Z,5.62
2023-05-01T13:34:17.772Z,6.42
2023-05-01T13:36:49.906Z,5.75
2023-05-01T13:39:21.629Z,5.67
2023-05-01T13:41:53.489Z,7.30
2023-05-01T13:44:25.821Z,7.53
2023-05-01T13:46:56.457Z,6.00
2023-05-01T13:49:30.134Z,6.92
2023-05-01T13:52:02.290Z,5.83
2023-05-01T13:54:33.069Z,6.55
2023-05-01T13:57:05.331Z,6.03
2023-05-01T13:59:42.225Z,6.08
2023-05-01T14:02:29.999Z,6.75
2023-05-01T14:05:04.963Z,6.70
2023-05-01T14:07:41.000Z,8.55
2023-05-01T14:10:13.828Z,6.30
2023-05-01T14:12:45.473Z,6.60
2023-05-01T14:15:18.307Z,6.37
2023-05-01T14:17:50.488Z,7.92
2023-05-01T14:20:21.653Z,6.40
2023-05-01T14:22:53.827Z,6.87
2023-05-01T14:25:31.315Z,6.53
2023-05-01T14:28:04.619Z,8.73
2023-05-01T14:30:38.818Z,5.92
2023-05-01T14:33:14.861Z,8.80
2023-05-01T14:35:49.925Z,7.08
2023-05-01T14:38:22.171Z,8.05
2023-05-01T14:40:55.411Z,5.92
2023-05-01T14:43:27.466Z,6.65
2023-05-01T14:45:59.061Z,8.10
2023-05-01T14:48:37.653Z,6.92
2023-05-01T14:51:16.574Z,8.10
2023-05-01T14:53:47.307Z,6.92
2023-05-01T14:56:17.946Z,8.63
2023-05-01T14:58:48.827Z,6.50
2023-05-01T15:01:20.281Z,9.53
2023-05-01T15:03:55.476Z,8.78
2023-05-01T15:06:28.227Z,7.75
2023-05-01T15:08:58.793Z,7.33
2023-05-01T15:11:30.922Z,6.05
2023-05-01T15:14:02.626Z,6.92
2023-05-01T15:16:33.406Z,6.42
2023-05-01T15:19:06.173Z,6.35
2023-05-01T15:21:38.144Z,7.28
2023-05-01T15:24:10.613Z,7.40
2023-05-01T15:26:43.218Z,7.53
2023-05-01T15:29:14.288Z,6.42
2023-05-01T15:31:46.182Z,8.03
2023-05-01T15:34:19.431Z,7.35
2023-05-01T15:36:51.150Z,8.30
2023-05-01T15:39:21.998Z,7.95
2023-05-01T15:41:52.828Z,8.55
2023-05-01T15:44:23.397Z,7.42
2023-05-01T15:46:54.228Z,7.30
2023-05-01T15:49:26.185Z,7.92
2023-05-01T15:51:56.823Z,6.42
2023-05-01T15:54:28.365Z,7.00
2023-05-01T15:57:01.284Z,6.37
2023-05-01T15:59:33.175Z,6.08
2023-05-01T16:02:03.856Z,8.23
2023-05-01T16:04:34.841Z,7.53
2023-05-01T16:07:06.474Z,8.48
2023-05-01T16:09:37.031Z,7.90
2023-05-01T16:12:09.591Z,6.40
2023-05-01T16:14:42.390Z,9.23
2023-05-01T16:17:15.112Z,7.47
2023-05-01T16:19:47.058Z,6.17
2023-05-01T16:22:21.137Z,6.75
2023-05-01T16:24:51.824Z,6.40
2023-05-01T16:27:23.627Z,5.95
2023-05-01T16:29:56.979Z,8.25
2023-05-01T16:32:27.235Z,8.18
2023-05-01T16:35:00.124Z,7.97
2023-05-01T16:37:32.865Z,7.97
2023-05-01T16:40:11.478Z,7.05
2023-05-01T16:42:42.266Z,6.95
2023-05-01T16:45:15.288Z,7.90
2023-05-01T16:47:46.266Z,8.88
2023-05-01T16:50:17.241Z,8.50
2023-05-01T16:52:48.908Z,8.43
2023-05-01T16:55:19.426Z,6.50
2023-05-01T16:57:49.899Z,8.78
2023-05-01T17:00:21.137Z,8.50
2023-05-01T17:02:53.524Z,7.72
2023-05-01T17:05:24.993Z,8.85
2023-05-01T17:07:55.941Z,7.72
2023-05-01T17:10:29.088Z,7.10
2023-05-01T17:12:58.855Z,9.90
2023-05-01T17:15:29.640Z,10.63
2023-05-01T17:18:02.010Z,7.28
2023-05-01T17:20:33.188Z,7.35
2023-05-01T17:23:04.017Z,7.35
2023-05-01T17:25:34.537Z,7.15
2023-05-01T17:28:05.156Z,7.60
2023-05-01T17:30:36.324Z,6.95
2023-05-01T17:33:06.896Z,7.85
2023-05-01T17:35:37.547Z,6.75
2023-05-01T17:38:10.588Z,7.28
2023-05-01T17:40:42.205Z,10.03
2023-05-01T17:43:12.776Z,8.55
2023-05-01T17:45:45.114Z,7.30
2023-05-01T17:48:15.799Z,7.55
2023-05-01T17:50:47.503Z,9.65
2023-05-01T17:53:18.259Z,10.63
2023-05-01T17:55:48.886Z,9.15
2023-05-01T17:58:21.060Z,26.87
2023-05-01T18:00:51.660Z,13.45
2023-05-01T18:03:22.296Z,7.90
2023-05-01T18:05:54.846Z,8.38
2023-05-01T18:08:25.498Z,8.43
2023-05-01T18:10:56.094Z,9.18
2023-05-01T18:13:29.332Z,7.50
2023-05-01T18:16:01.475Z,7.97
2023-05-01T18:18:32.959Z,11.85
2023-05-01T18:21:07.000Z,9.23
2023-05-01T18:23:38.328Z,24.92
2023-05-01T18:26:09.287Z,12.47
2023-05-01T18:28:41.317Z,10.60
2023-05-01T18:31:12.031Z,9.95
2023-05-01T18:33:42.529Z,9.88
2023-05-01T18:36:13.132Z,8.15
2023-05-01T18:38:43.761Z,8.88
2023-05-01T18:41:15.952Z,8.78
2023-05-01T18:43:51.860Z,10.50
2023-05-01T18:46:21.569Z,10.20
2023-05-01T18:48:53.818Z,10.95
2023-05-01T18:51:24.572Z,9.65
2023-05-01T18:53:56.161Z,10.05
2023-05-01T18:56:27.770Z,13.53
2023-05-01T18:58:59.474Z,13.48
2023-05-01T19:01:30.126Z,19.27
2023-05-01T19:04:00.807Z,19.30
2023-05-01T19:06:31.641Z,17.73
2023-05-01T19:09:02.327Z,13.68
2023-05-01T19:11:33.257Z,14.68
2023-05-01T19:14:04.051Z,11.68
2023-05-01T19:16:34.810Z,14.00
2023-05-01T19:19:06.455Z,9.70
2023-05-01T19:21:40.116Z,11.73
2023-05-01T19:24:14.556Z,11.70
2023-05-01T19:26:47.070Z,13.88
2023-05-01T19:29:17.919Z,12.60
2023-05-01T19:31:48.650Z,18.70
2023-05-01T19:34:23.409Z,15.58
2023-05-01T19:36:55.828Z,14.55
2023-05-01T19:39:27.950Z,18.00
2023-05-01T19:42:00.005Z,18.37
2023-05-01T19:44:30.940Z,13.55
2023-05-01T19:47:02.964Z,13.30
2023-05-01T19:49:33.914Z,14.13
2023-05-01T19:52:04.594Z,15.50
2023-05-01T19:54:35.500Z,12.60
2023-05-01T19:57:10.266Z,14.35
2023-05-01T19:59:43.797Z,14.53
2023-05-01T20:02:16.222Z,16.30
2023-05-01T20:04:48.092Z,12.30
2023-05-01T20:07:18.829Z,15.13
2023-05-01T20:09:53.503Z,14.55
2023-05-01T20:12:24.628Z,12.85
2023-05-01T20:14:55.831Z,12.37
2023-05-01T20:17:27.256Z,14.75
2023-05-01T20:19:59.884Z,14.60
2023-05-01T20:22:30.912Z,17.35
2023-05-01T20:25:01.601Z,15.03
2023-05-01T20:27:33.708Z,13.75
2023-05-01T20:30:05.276Z,13.20
2023-05-01T20:32:36.951Z,11.83
2023-05-01T20:35:08.476Z,13.25
2023-05-01T20:37:39.052Z,13.65
2023-05-01T20:40:11.729Z,14.98
2023-05-01T20:42:43.517Z,15.00
2023-05-01T20:45:14.208Z,15.23
2023-05-01T20:47:45.234Z,12.18
2023-05-01T20:50:17.557Z,12.63
2023-05-01T20:52:48.232Z,15.48
2023-05-01T20:55:19.584Z,12.25
2023-05-01T20:57:50.331Z,12.75
2023-05-01T21:00:21.135Z,11.38
2023-05-01T21:02:52.963Z,12.85
2023-05-01T21:05:23.797Z,13.25
2023-05-01T21:07:54.361Z,11.33
2023-05-01T21:10:25.727Z,12.68
2023-05-01T21:12:57.034Z,10.93
2023-05-01T21:15:27.653Z,11.50
2023-05-01T21:17:58.341Z,12.82
2023-05-01T21:20:34.956Z,12.15
2023-05-01T21:23:06.082Z,10.60
2023-05-01T21:25:37.065Z,12.25
2023-05-01T21:28:09.094Z,14.93
2023-05-01T21:30:40.424Z,13.20
2023-05-01T21:33:17.557Z,12.73
2023-05-01T21:35:49.260Z,12.37
2023-05-01T21:38:20.384Z,14.87
2023-05-01T21:40:51.200Z,15.43
2023-05-01T21:43:21.790Z,13.30
2023-05-01T21:45:54.223Z,14.83
2023-05-01T21:48:26.482Z,14.00
2023-05-01T21:50:57.130Z,17.37
2023-05-01T21:53:30.134Z,18.15
2023-05-01T21:56:01.227Z,16.70
2023-05-01T21:58:31.966Z,18.17
2023-05-01T22:01:07.623Z,15.60
2023-05-01T22:03:41.696Z,22.00
2023-05-01T22:06:12.387Z,19.52
2023-05-01T22:08:42.992Z,17.10
2023-05-01T22:11:13.498Z,18.45
2023-05-01T22:13:45.488Z,17.65
2023-05-01T22:16:17.131Z,14.40
2023-05-01T22:18:49.816Z,15.63
2023-05-01T22:21:27.209Z,13.62
2023-05-01T22:24:01.695Z,16.60
2023-05-01T22:26:40.302Z,14.83
2023-05-01T22:29:10.806Z,12.10
2023-05-01T22:31:41.442Z,13.70
2023-05-01T22:34:11.995Z,13.00
2023-05-01T22:36:42.556Z,14.15
2023-05-01T22:39:13.454Z,12.68
2023-05-01T22:41:43.923Z,15.35
2023-05-01T22:44:14.941Z,14.90
2023-05-01T22:46:45.736Z,19.23
2023-05-01T22:49:16.455Z,14.30
2023-05-01T22:51:48.293Z,13.60
2023-05-01T22:54:18.820Z,15.10
2023-05-01T22:56:50.934Z,12.55
2023-05-01T22:59:21.695Z,14.03
2023-05-01T23:01:52.646Z,12.78
2023-05-01T23:04:25.993Z,11.35
2023-05-01T23:06:57.331Z,13.55
2023-05-01T23:09:29.558Z,13.83
2023-05-01T23:12:00.071Z,10.40
2023-05-01T23:14:30.781Z,12.00
2023-05-01T23:17:02.726Z,11.80
2023-05-01T23:19:33.443Z,10.43
2023-05-01T23:22:09.420Z,13.30
2023-05-01T23:24:46.987Z,11.90
2023-05-01T23:27:21.624Z,10.98
2023-05-01T23:29:58.700Z,12.23
2023-05-01T23:32:31.883Z,10.25
2023-05-01T23:35:05.470Z,9.08
2023-05-01T23:37:36.055Z,9.85
2023-05-01T23:40:08.730Z,10.23
2023-05-01T23:42:40.324Z,10.35
2023-05-01T23:45:11.106Z,9.38
2023-05-01T23:47:41.757Z,9.90
2023-05-01T23:50:12.743Z,7.80
2023-05-01T23:52:43.429Z,9.58
2023-05-01T23:55:15.641Z,10.55
2023-05-01T23:57:46.520Z,8.25
